createdAt,value
2017-11-14T00:01:31.181Z,0.50
2017-11-14T00:03:58.188Z,0.40
2017-11-14T00:06:24.774Z,0.40
2017-11-14T00:08:51.362Z,0.40
2017-11-14T00:11:18.167Z,0.50
2017-11-14T00:13:44.843Z,0.50
2017-11-14T00:16:11.556Z,0.60
2017-11-14T00:18:38.194Z,0.70
2017-11-14T00:21:04.774Z,0.60
2017-11-14T00:23:31.359Z,0.60
2017-11-14T00:25:58.098Z,0.50
2017-11-14T00:28:25.049Z,0.50
2017-11-14T00:30:51.614Z,0.50
2017-11-14T00:33:18.257Z,0.40
2017-11-14T00:35:44.843Z,0.40
2017-11-14T00:38:11.417Z,0.30
2017-11-14T00:40:38.424Z,0.30
2017-11-14T00:43:05.165Z,0.30
2017-11-14T00:45:32.105Z,0.00
2017-11-14T00:47:59.277Z,-0.10
2017-11-14T00:50:25.854Z,0.00
2017-11-14T00:52:52.810Z,-0.20
2017-11-14T00:55:19.521Z,-0.20
2017-11-14T00:57:46.120Z,-0.20
2017-11-14T01:00:13.073Z,-0.10
2017-11-14T01:02:39.738Z,-0.10
2017-11-14T01:05:06.308Z,-0.10
2017-11-14T01:07:32.872Z,-0.10
2017-11-14T01:09:59.517Z,-0.20
2017-11-14T01:12:26.118Z,-0.30
2017-11-14T01:14:52.680Z,-0.30
2017-11-14T01:17:19.696Z,-0.40
2017-11-14T01:19:46.268Z,-0.40
2017-11-14T01:22:12.873Z,-0.30
2017-11-14T01:24:39.500Z,-0.30
2017-11-14T01:27:06.073Z,-0.30
2017-11-14T01:29:32.641Z,-0.40
2017-11-14T01:31:59.262Z,-0.40
2017-11-14T01:34:25.843Z,-0.40
2017-11-14T01:36:52.449Z,-0.40
2017-11-14T01:39:19.105Z,-0.40
2017-11-14T01:41:45.690Z,-0.40
2017-11-14T01:44:12.297Z,-0.50
2017-11-14T01:46:38.957Z,-0.60
2017-11-14T01:49:05.997Z,-0.60
2017-11-14T01:51:32.957Z,-0.70
2017-11-14T01:53:59.589Z,-0.60
2017-11-14T01:56:26.164Z,-0.60
2017-11-14T01:58:53.109Z,-0.60
2017-11-14T02:01:19.753Z,-0.60
2017-11-14T02:03:46.356Z,-0.60
2017-11-14T02:06:13.002Z,-0.60
2017-11-14T02:08:39.700Z,-0.60
2017-11-14T02:11:06.337Z,-0.60
2017-11-14T02:13:32.961Z,-0.60
2017-11-14T02:15:59.702Z,-0.60
2017-11-14T02:18:26.316Z,-0.70
2017-11-14T02:20:52.902Z,-0.80
2017-11-14T02:23:19.600Z,-0.70
2017-11-14T02:25:46.300Z,-0.70
2017-11-14T02:28:12.985Z,-0.70
2017-11-14T02:30:39.692Z,-0.80
2017-11-14T02:33:06.318Z,-0.80
2017-11-14T02:35:32.989Z,-0.80
2017-11-14T02:37:59.687Z,-0.80
2017-11-14T02:40:26.308Z,-0.80
2017-11-14T02:42:52.942Z,-0.80
2017-11-14T02:45:19.695Z,-0.70
2017-11-14T02:47:46.345Z,-0.60
2017-11-14T02:50:12.989Z,-0.70
2017-11-14T02:52:39.706Z,-0.80
2017-11-14T02:55:06.346Z,-0.90
2017-11-14T02:57:32.941Z,-0.90
2017-11-14T02:59:59.789Z,-0.80
2017-11-14T03:02:26.372Z,-0.80
2017-11-14T03:04:53.376Z,-0.90
2017-11-14T03:07:20.029Z,-0.90
2017-11-14T03:09:46.610Z,-1.00
2017-11-14T03:15:16.109Z,-1.10
2017-11-14T03:17:42.672Z,-1.20
2017-11-14T03:20:09.320Z,-1.10
2017-11-14T03:22:35.962Z,-1.00
2017-11-14T03:25:02.576Z,-0.80
2017-11-14T03:27:29.148Z,-0.80
2017-11-14T03:29:55.768Z,-0.70
2017-11-14T03:32:22.398Z,-0.60
2017-11-14T03:34:49.374Z,-0.70
2017-11-14T03:37:16.040Z,-0.70
2017-11-14T03:39:42.609Z,-0.70
2017-11-14T03:42:09.208Z,-0.70
2017-11-14T03:44:35.970Z,-0.70
2017-11-14T03:47:02.572Z,-0.70
2017-11-14T03:49:29.176Z,-0.60
2017-11-14T03:51:55.977Z,-0.70
2017-11-14T03:54:22.589Z,-0.80
2017-11-14T03:56:49.188Z,-0.90
2017-11-14T03:59:15.838Z,-0.90
2017-11-14T04:01:42.796Z,-0.90
2017-11-14T04:04:09.727Z,-1.00
2017-11-14T04:06:36.382Z,-1.00
2017-11-14T04:09:03.057Z,-1.00
2017-11-14T04:11:30.021Z,-1.20
2017-11-14T04:13:57.019Z,-1.20
2017-11-14T04:16:23.617Z,-1.20
2017-11-14T04:18:50.544Z,-1.30
2017-11-14T04:21:17.172Z,-1.40
2017-11-14T04:23:43.764Z,-1.40
2017-11-14T04:26:10.699Z,-1.30
2017-11-14T04:28:37.328Z,-1.30
2017-11-14T04:31:03.880Z,-1.30
2017-11-14T04:33:30.476Z,-1.40
2017-11-14T04:35:57.121Z,-1.40
2017-11-14T04:38:38.932Z,-1.40
2017-11-14T04:41:05.926Z,-1.40
2017-11-14T04:43:32.506Z,-1.40
2017-11-14T04:45:59.213Z,-1.40
2017-11-14T04:48:25.852Z,-1.40
2017-11-14T04:50:52.408Z,-1.40
2017-11-14T04:53:18.979Z,-1.30
2017-11-14T04:55:45.796Z,-1.30
2017-11-14T04:58:12.357Z,-1.40
2017-11-14T05:00:38.923Z,-1.30
2017-11-14T05:03:05.553Z,-1.30
2017-11-14T05:05:32.091Z,-1.30
2017-11-14T05:07:58.659Z,-1.30
2017-11-14T05:10:25.277Z,-1.30
2017-11-14T05:12:51.844Z,-1.40
2017-11-14T05:15:18.419Z,-1.30
2017-11-14T05:17:45.036Z,-1.20
2017-11-14T05:20:11.591Z,-1.20
2017-11-14T05:22:38.135Z,-1.20
2017-11-14T05:25:04.744Z,-1.20
2017-11-14T05:27:31.676Z,-1.20
2017-11-14T05:29:58.220Z,-1.20
2017-11-14T05:32:24.824Z,-1.20
2017-11-14T05:34:51.375Z,-1.30
2017-11-14T05:37:17.934Z,-1.30
2017-11-14T05:39:44.536Z,-1.40
2017-11-14T05:42:11.484Z,-1.40
2017-11-14T05:44:38.051Z,-1.40
2017-11-14T05:47:05.060Z,-1.40
2017-11-14T05:49:31.626Z,-1.40
2017-11-14T05:51:58.176Z,-1.40
2017-11-14T05:54:24.891Z,-1.50
2017-11-14T05:56:51.434Z,-1.50
2017-11-14T05:59:17.971Z,-1.60
2017-11-14T06:01:44.642Z,-1.50
2017-11-14T06:04:11.187Z,-1.50
2017-11-14T06:06:37.722Z,-1.40
2017-11-14T06:09:04.647Z,-1.20
2017-11-14T06:11:31.600Z,-1.20
2017-11-14T06:13:58.531Z,-1.20
2017-11-14T06:16:25.232Z,-1.20
2017-11-14T06:18:51.804Z,-1.20
2017-11-14T06:21:25.359Z,-1.10
2017-11-14T06:23:51.944Z,-1.20
2017-11-14T06:26:18.515Z,-1.40
2017-11-14T06:28:45.115Z,-1.40
2017-11-14T06:31:12.034Z,-1.50
2017-11-14T06:33:38.626Z,-1.50
2017-11-14T06:36:05.239Z,-1.50
2017-11-14T06:38:31.796Z,-1.50
2017-11-14T06:40:58.346Z,-1.40
2017-11-14T06:43:25.391Z,-1.10
2017-11-14T06:45:51.987Z,-1.10
2017-11-14T06:48:18.563Z,-1.00
2017-11-14T06:50:45.189Z,-0.90
2017-11-14T06:53:11.739Z,-0.80
2017-11-14T06:55:38.295Z,-0.80
2017-11-14T06:58:04.900Z,-0.80
2017-11-14T07:00:31.816Z,-0.70
2017-11-14T07:02:58.368Z,-0.70
2017-11-14T07:05:24.984Z,-0.50
2017-11-14T07:07:52.130Z,-0.40
2017-11-14T07:10:18.695Z,-0.40
2017-11-14T07:12:45.406Z,-0.40
2017-11-14T07:15:11.943Z,-0.30
2017-11-14T07:17:38.499Z,-0.30
2017-11-14T07:20:05.535Z,-0.20
2017-11-14T07:22:32.103Z,-0.20
2017-11-14T07:24:59.027Z,-0.20
2017-11-14T07:27:25.711Z,-0.10
2017-11-14T07:29:52.248Z,-0.10
2017-11-14T07:32:25.922Z,-0.10
2017-11-14T07:34:52.508Z,-0.10
2017-11-14T07:37:19.075Z,-0.10
2017-11-14T07:39:46.040Z,0.00
2017-11-14T07:42:12.990Z,0.10
2017-11-14T07:44:39.912Z,0.10
2017-11-14T07:47:06.671Z,0.10
2017-11-14T07:49:33.240Z,0.10
2017-11-14T07:52:00.175Z,0.20
2017-11-14T07:54:26.792Z,0.20
2017-11-14T07:56:53.355Z,0.20
2017-11-14T07:59:19.901Z,0.30
2017-11-14T08:01:46.527Z,0.30
2017-11-14T08:04:13.100Z,0.30
2017-11-14T08:06:39.668Z,0.40
2017-11-14T08:09:06.317Z,0.50
2017-11-14T08:11:32.899Z,0.60
2017-11-14T08:13:59.481Z,0.70
2017-11-14T08:16:26.088Z,0.70
2017-11-14T08:18:53.023Z,0.80
2017-11-14T08:21:19.967Z,0.90
2017-11-14T08:23:46.607Z,0.90
2017-11-14T08:26:13.162Z,0.80
2017-11-14T08:28:39.719Z,0.90
2017-11-14T08:31:06.344Z,1.00
2017-11-14T08:33:32.912Z,1.00
2017-11-14T08:35:59.471Z,1.00
2017-11-14T08:38:26.103Z,1.10
2017-11-14T08:40:52.694Z,1.10
2017-11-14T08:43:19.268Z,1.10
2017-11-14T08:45:45.957Z,1.10
2017-11-14T08:48:12.515Z,1.20
2017-11-14T08:50:39.452Z,1.40
2017-11-14T08:53:06.095Z,1.30
2017-11-14T08:55:32.676Z,1.50
2017-11-14T08:57:59.639Z,1.50
2017-11-14T09:00:26.700Z,1.60
2017-11-14T09:02:53.671Z,1.60
2017-11-14T09:05:20.271Z,1.60
2017-11-14T09:07:46.987Z,1.60
2017-11-14T09:10:13.603Z,1.70
2017-11-14T09:12:40.554Z,1.70
2017-11-14T09:15:07.596Z,1.80
2017-11-14T09:17:34.215Z,1.80
2017-11-14T09:20:00.831Z,2.00
2017-11-14T09:22:27.496Z,2.00
2017-11-14T09:24:54.113Z,1.80
2017-11-14T09:27:21.135Z,2.00
2017-11-14T09:29:47.839Z,2.00
2017-11-14T09:32:14.480Z,2.20
2017-11-14T09:37:14.887Z,2.40
2017-11-14T09:39:41.504Z,2.60
2017-11-14T09:42:08.132Z,2.90
2017-11-14T09:44:35.171Z,3.40
2017-11-14T09:47:01.819Z,3.40
2017-11-14T09:49:28.438Z,3.30
2017-11-14T09:51:55.133Z,3.10
2017-11-14T09:54:22.159Z,2.90
2017-11-14T09:56:48.764Z,2.90
2017-11-14T09:59:15.417Z,2.70
2017-11-14T10:01:42.024Z,2.80
2017-11-14T10:04:08.640Z,2.90
2017-11-14T10:06:35.368Z,3.00
2017-11-14T10:09:01.987Z,2.90
2017-11-14T10:11:28.995Z,2.80
2017-11-14T10:13:55.712Z,2.80
2017-11-14T10:16:22.339Z,2.60
2017-11-14T10:18:48.967Z,2.70
2017-11-14T10:21:15.653Z,2.80
2017-11-14T10:23:42.339Z,3.00
2017-11-14T10:26:08.952Z,3.20
2017-11-14T10:28:36.008Z,3.30
2017-11-14T10:31:02.991Z,3.40
2017-11-14T10:33:29.603Z,3.50
2017-11-14T10:35:56.672Z,3.60
2017-11-14T10:38:23.684Z,3.80
2017-11-14T10:40:50.331Z,3.80
2017-11-14T10:43:17.018Z,4.00
2017-11-14T10:45:44.031Z,3.90
2017-11-14T10:48:10.674Z,3.90
2017-11-14T10:50:37.347Z,4.00
2017-11-14T10:53:03.967Z,4.00
2017-11-14T10:55:30.583Z,4.00
2017-11-14T10:57:57.650Z,4.30
2017-11-14T11:00:30.807Z,4.40
2017-11-14T11:02:57.479Z,4.40
2017-11-14T11:05:24.084Z,4.10
2017-11-14T11:07:50.711Z,4.00
2017-11-14T11:10:17.658Z,4.00
2017-11-14T11:12:44.284Z,3.70
2017-11-14T11:15:10.883Z,3.60
2017-11-14T11:17:37.587Z,3.60
2017-11-14T11:20:04.587Z,3.70
2017-11-14T11:22:31.212Z,3.70
2017-11-14T11:24:57.943Z,3.60
2017-11-14T11:27:24.933Z,3.80
2017-11-14T11:29:51.549Z,3.80
2017-11-14T11:32:18.599Z,4.00
2017-11-14T11:34:45.307Z,4.00
2017-11-14T11:37:11.935Z,4.20
2017-11-14T11:39:38.622Z,4.30
2017-11-14T11:42:05.264Z,4.40
2017-11-14T11:44:32.196Z,4.50
2017-11-14T11:46:59.328Z,4.60
2017-11-14T11:49:25.984Z,4.80
2017-11-14T11:51:53.024Z,4.80
2017-11-14T11:54:19.699Z,4.80
2017-11-14T11:56:46.716Z,4.90
2017-11-14T11:59:14.247Z,4.90
2017-11-14T12:01:40.978Z,4.70
2017-11-14T12:04:07.991Z,4.70
2017-11-14T12:06:34.628Z,4.70
2017-11-14T12:09:01.410Z,4.80
2017-11-14T12:11:28.072Z,4.80
2017-11-14T12:13:54.729Z,5.00
2017-11-14T12:16:21.408Z,4.80
2017-11-14T12:18:48.048Z,4.80
2017-11-14T12:21:15.079Z,5.00
2017-11-14T12:23:41.768Z,5.00
2017-11-14T12:26:08.370Z,5.20
2017-11-14T12:28:34.992Z,5.30
2017-11-14T12:31:01.682Z,5.50
2017-11-14T12:33:28.664Z,5.30
2017-11-14T12:35:55.291Z,5.30
2017-11-14T12:38:22.305Z,5.60
2017-11-14T12:40:48.897Z,5.60
2017-11-14T12:43:15.830Z,5.70
2017-11-14T12:45:42.487Z,5.80
2017-11-14T12:48:09.065Z,5.80
2017-11-14T12:50:36.063Z,5.60
2017-11-14T12:53:02.704Z,5.60
2017-11-14T12:55:29.259Z,5.60
2017-11-14T12:57:55.850Z,5.70
2017-11-14T13:00:23.015Z,5.50
2017-11-14T13:02:49.939Z,5.40
2017-11-14T13:05:16.558Z,5.40
2017-11-14T13:07:43.232Z,5.10
2017-11-14T13:10:09.844Z,4.90
2017-11-14T13:12:36.436Z,4.60
2017-11-14T13:15:03.524Z,4.30
2017-11-14T13:17:30.470Z,3.90
2017-11-14T13:19:57.082Z,3.90
2017-11-14T13:22:24.355Z,3.90
2017-11-14T13:24:50.898Z,4.00
2017-11-14T13:27:17.455Z,4.10
2017-11-14T13:29:44.099Z,4.20
2017-11-14T13:32:10.726Z,4.20
2017-11-14T13:34:37.284Z,4.30
2017-11-14T13:37:03.939Z,4.30
2017-11-14T13:39:30.504Z,4.30
2017-11-14T13:41:57.066Z,4.30
2017-11-14T13:44:23.679Z,4.40
2017-11-14T13:46:50.231Z,4.40
2017-11-14T13:49:16.791Z,4.40
2017-11-14T13:51:43.554Z,4.50
2017-11-14T13:54:10.107Z,4.60
2017-11-14T13:56:36.659Z,4.50
2017-11-14T13:59:03.290Z,4.50
2017-11-14T14:01:29.856Z,4.50
2017-11-14T14:03:56.413Z,4.50
2017-11-14T14:06:23.376Z,4.30
2017-11-14T14:08:50.348Z,4.30
2017-11-14T14:11:16.904Z,4.30
2017-11-14T14:13:43.540Z,4.10
2017-11-14T14:16:10.132Z,4.10
2017-11-14T14:18:36.698Z,4.00
2017-11-14T14:21:03.796Z,3.90
2017-11-14T14:23:30.359Z,3.80
2017-11-14T14:25:56.924Z,3.70
2017-11-14T14:28:23.641Z,3.60
2017-11-14T14:30:50.262Z,3.60
2017-11-14T14:33:16.825Z,3.60
2017-11-14T14:35:43.799Z,3.50
2017-11-14T14:38:10.335Z,3.60
2017-11-14T14:40:37.258Z,3.60
2017-11-14T14:43:03.875Z,3.60
2017-11-14T14:45:30.419Z,3.70
2017-11-14T14:47:56.972Z,3.70
2017-11-14T14:50:23.574Z,3.60
2017-11-14T14:52:50.525Z,3.50
2017-11-14T14:55:17.451Z,3.40
2017-11-14T14:57:44.081Z,3.40
2017-11-14T15:00:10.633Z,3.30
2017-11-14T15:02:37.187Z,3.10
2017-11-14T15:05:03.807Z,2.90
2017-11-14T15:07:30.347Z,2.80
2017-11-14T15:09:56.895Z,2.80
2017-11-14T15:12:23.504Z,2.90
2017-11-14T15:14:50.055Z,2.70
2017-11-14T15:17:16.607Z,2.60
2017-11-14T15:19:43.563Z,2.50
2017-11-14T15:22:10.491Z,2.40
2017-11-14T15:24:37.068Z,2.40
2017-11-14T15:27:04.051Z,2.30
2017-11-14T15:29:30.629Z,2.30
2017-11-14T15:31:57.196Z,2.20
2017-11-14T15:34:23.807Z,2.20
2017-11-14T15:36:50.359Z,2.10
2017-11-14T15:39:16.915Z,2.10
2017-11-14T15:41:43.513Z,2.00
2017-11-14T15:44:10.440Z,1.80
2017-11-14T15:46:36.991Z,1.80
2017-11-14T15:49:03.880Z,1.70
2017-11-14T15:51:30.475Z,1.60
2017-11-14T15:53:57.058Z,1.60
2017-11-14T15:56:24.142Z,1.50
2017-11-14T15:58:51.054Z,1.40
2017-11-14T16:01:17.623Z,1.40
2017-11-14T16:03:44.256Z,1.40
2017-11-14T16:06:10.802Z,1.40
2017-11-14T16:08:37.368Z,1.30
2017-11-14T16:11:04.376Z,1.10
2017-11-14T16:13:30.974Z,1.10
2017-11-14T16:15:57.922Z,1.10
2017-11-14T16:18:24.566Z,1.00
2017-11-14T16:20:51.139Z,1.00
2017-11-14T16:23:18.095Z,1.00
2017-11-14T16:25:45.071Z,0.90
2017-11-14T16:28:11.620Z,0.90
2017-11-14T16:30:38.223Z,0.90
2017-11-14T16:33:04.921Z,0.90
2017-11-14T16:35:31.504Z,0.90
2017-11-14T16:37:58.112Z,0.90
2017-11-14T16:40:24.772Z,0.90
2017-11-14T16:42:51.325Z,0.80
2017-11-14T16:45:17.916Z,0.90
2017-11-14T16:47:44.536Z,1.00
2017-11-14T16:50:11.119Z,1.10
2017-11-14T16:52:38.045Z,0.80
2017-11-14T16:55:04.731Z,0.80
2017-11-14T16:57:31.688Z,0.80
2017-11-14T16:59:58.636Z,0.70
2017-11-14T17:02:25.287Z,0.70
2017-11-14T17:04:51.894Z,0.70
2017-11-14T17:07:18.460Z,0.70
2017-11-14T17:09:45.134Z,0.70
2017-11-14T17:12:11.720Z,0.70
2017-11-14T17:14:38.352Z,0.70
2017-11-14T17:17:05.069Z,0.70
2017-11-14T17:19:31.620Z,0.70
2017-11-14T17:21:58.163Z,0.80
2017-11-14T17:24:24.778Z,0.90
2017-11-14T17:26:51.335Z,0.80
2017-11-14T17:29:17.967Z,0.80
2017-11-14T17:31:44.571Z,0.90
2017-11-14T17:34:11.505Z,0.80
2017-11-14T17:36:38.067Z,0.80
2017-11-14T17:39:04.688Z,0.80
2017-11-14T17:41:31.225Z,0.80
2017-11-14T17:43:57.786Z,0.80
2017-11-14T17:46:24.456Z,0.90
2017-11-14T17:48:51.026Z,0.90
2017-11-14T17:51:17.955Z,1.00
2017-11-14T17:53:44.748Z,1.00
2017-11-14T17:56:11.290Z,0.90
2017-11-14T17:58:37.848Z,0.90
2017-11-14T18:01:04.679Z,0.90
2017-11-14T18:03:31.612Z,1.00
2017-11-14T18:05:58.175Z,1.00
2017-11-14T18:08:24.853Z,0.90
2017-11-14T18:10:51.389Z,0.80
2017-11-14T18:13:18.320Z,0.70
2017-11-14T18:15:44.947Z,0.70
2017-11-14T18:18:11.524Z,0.70
2017-11-14T18:20:38.439Z,0.70
2017-11-14T18:23:05.063Z,0.70
2017-11-14T18:25:31.620Z,0.80
2017-11-14T18:27:58.176Z,0.80
2017-11-14T18:30:24.894Z,0.80
2017-11-14T18:32:51.446Z,0.90
2017-11-14T18:35:17.995Z,0.90
2017-11-14T18:37:44.929Z,0.80
2017-11-14T18:40:13.779Z,0.80
2017-11-14T18:42:40.361Z,0.80
2017-11-14T18:45:07.063Z,0.80
2017-11-14T18:47:33.696Z,0.90
2017-11-14T18:50:00.254Z,0.90
2017-11-14T18:52:26.852Z,0.90
2017-11-14T18:54:55.200Z,0.80
2017-11-14T18:57:21.786Z,0.90
2017-11-14T18:59:48.408Z,0.90
2017-11-14T19:02:14.962Z,0.90
2017-11-14T19:04:41.512Z,0.80
2017-11-14T19:07:08.151Z,0.80
2017-11-14T19:09:34.751Z,0.70
2017-11-14T19:12:01.703Z,0.60
2017-11-14T19:14:28.740Z,0.50
2017-11-14T19:16:55.340Z,0.50
2017-11-14T19:19:21.932Z,0.50
2017-11-14T19:21:48.580Z,0.50
2017-11-14T19:24:15.149Z,0.50
2017-11-14T19:26:42.096Z,0.60
2017-11-14T19:29:09.549Z,0.60
2017-11-14T19:31:36.143Z,0.70
2017-11-14T19:34:02.748Z,0.70
2017-11-14T19:36:29.800Z,0.70
2017-11-14T19:38:56.456Z,0.70
2017-11-14T19:41:23.071Z,0.70
2017-11-14T19:43:49.714Z,0.60
2017-11-14T19:46:16.372Z,0.50
2017-11-14T19:48:42.974Z,0.50
2017-11-14T19:51:10.006Z,0.80
2017-11-14T19:53:36.601Z,0.80
2017-11-14T19:56:03.220Z,0.70
2017-11-14T19:58:30.079Z,0.70
2017-11-14T20:00:56.712Z,0.70
2017-11-14T20:03:23.380Z,0.70
2017-11-14T20:05:50.468Z,0.60
2017-11-14T20:08:17.080Z,0.60
2017-11-14T20:10:43.678Z,0.70
2017-11-14T20:13:10.357Z,0.70
2017-11-14T20:15:36.944Z,0.70
2017-11-14T20:18:04.606Z,0.70
2017-11-14T20:20:33.005Z,0.60
2017-11-14T20:22:59.896Z,0.60
2017-11-14T20:25:26.704Z,0.60
2017-11-14T20:27:54.016Z,0.70
2017-11-14T20:30:20.588Z,0.80
2017-11-14T20:32:47.172Z,0.70
2017-11-14T20:35:14.351Z,0.60
2017-11-14T20:40:35.361Z,0.70
2017-11-14T20:43:01.936Z,0.70
2017-11-14T20:45:28.896Z,0.60
2017-11-14T20:47:55.814Z,0.60
2017-11-14T20:50:23.336Z,0.60
2017-11-14T20:52:50.735Z,0.60
2017-11-14T20:55:18.652Z,0.60
2017-11-14T20:57:45.664Z,0.50
2017-11-14T21:00:13.135Z,0.50
2017-11-14T21:02:39.880Z,0.50
2017-11-14T21:05:06.786Z,0.50
2017-11-14T21:07:33.420Z,0.50
2017-11-14T21:10:00.125Z,0.50
2017-11-14T21:12:26.783Z,0.50
2017-11-14T21:14:54.144Z,0.50
2017-11-14T21:17:20.785Z,0.50
2017-11-14T21:19:47.474Z,0.50
2017-11-14T21:22:14.053Z,0.50
2017-11-14T21:24:40.701Z,0.50
2017-11-14T21:27:07.633Z,0.60
2017-11-14T21:29:34.264Z,0.60
2017-11-14T21:32:01.073Z,0.60
2017-11-14T21:34:27.794Z,0.60
2017-11-14T21:36:54.407Z,0.70
2017-11-14T21:39:21.440Z,0.60
2017-11-14T21:41:48.059Z,0.60
2017-11-14T21:44:15.002Z,0.50
2017-11-14T21:46:42.016Z,0.50
2017-11-14T21:49:08.600Z,0.50
2017-11-14T21:51:35.165Z,0.50
2017-11-14T21:54:02.163Z,0.60
2017-11-14T21:56:28.820Z,0.60
2017-11-14T21:58:55.805Z,0.60
2017-11-14T22:01:22.444Z,0.60
2017-11-14T22:03:49.115Z,0.60
2017-11-14T22:06:15.718Z,0.50
2017-11-14T22:08:42.371Z,0.50
2017-11-14T22:11:08.939Z,0.50
2017-11-14T22:13:35.544Z,0.50
2017-11-14T22:16:02.656Z,0.50
2017-11-14T22:18:29.212Z,0.50
2017-11-14T22:20:55.760Z,0.50
2017-11-14T22:23:22.387Z,0.40
2017-11-14T22:25:48.947Z,0.40
2017-11-14T22:28:15.494Z,0.40
2017-11-14T22:30:42.119Z,0.40
2017-11-14T22:33:08.672Z,0.40
2017-11-14T22:35:35.211Z,0.40
2017-11-14T22:38:01.901Z,0.50
2017-11-14T22:40:28.446Z,0.50
2017-11-14T22:42:54.996Z,0.50
2017-11-14T22:45:21.606Z,0.50
2017-11-14T22:47:48.155Z,0.50
2017-11-14T22:50:14.729Z,0.50
2017-11-14T22:52:41.524Z,0.60
2017-11-14T22:55:08.087Z,0.60
2017-11-14T22:57:34.672Z,0.60
2017-11-14T23:00:01.315Z,0.60
2017-11-14T23:02:27.883Z,0.50
2017-11-14T23:04:54.443Z,0.50
2017-11-14T23:07:21.447Z,0.50
2017-11-14T23:09:48.000Z,0.50
2017-11-14T23:14:47.939Z,0.40
2017-11-14T23:17:14.471Z,0.30
2017-11-14T23:19:41.020Z,0.40
2017-11-14T23:22:07.734Z,0.40
2017-11-14T23:24:34.282Z,0.40
2017-11-14T23:27:00.839Z,0.40
2017-11-14T23:29:27.545Z,0.40
2017-11-14T23:31:54.111Z,0.40
2017-11-14T23:34:20.659Z,0.30
2017-11-14T23:36:47.274Z,0.30
2017-11-14T23:39:13.835Z,0.10
2017-11-14T23:41:40.438Z,0.10
2017-11-14T23:44:07.424Z,0.30
2017-11-14T23:46:33.968Z,0.20
2017-11-14T23:49:00.532Z,0.30
2017-11-14T23:51:27.139Z,0.40
2017-11-14T23:53:54.060Z,0.30
2017-11-14T23:56:20.596Z,0.30
2017-11-14T23:58:47.238Z,0.30
